createdAt,value
2022-08-22T00:00:18.874Z,101226.19
2022-08-22T00:01:55.426Z,101232.41
2022-08-22T00:02:53.999Z,101248.59
2022-08-22T00:03:07.845Z,101254.16
2022-08-22T00:03:08.534Z,101227.25
2022-08-22T00:03:35.353Z,101233.28
2022-08-22T00:05:13.122Z,101232.41
2022-08-22T00:06:51.022Z,101228.53
2022-08-22T00:08:27.911Z,101230.03
2022-08-22T00:10:01.530Z,101224.78
2022-08-22T00:11:50.514Z,101232.84
2022-08-22T00:13:28.639Z,101229.50
2022-08-22T00:15:03.617Z,101230.59
2022-08-22T00:16:39.555Z,101225.34
2022-08-22T00:18:13.201Z,101223.66
2022-08-22T00:19:49.181Z,101226.19
2022-08-22T00:21:27.235Z,101221.97
2022-08-22T00:23:03.092Z,101218.66
2022-08-22T00:24:39.886Z,101229.25
2022-08-22T00:26:18.148Z,101220.50
2022-08-22T00:27:55.074Z,101222.31
2022-08-22T00:29:30.399Z,101213.66
2022-08-22T00:31:09.136Z,101217.19
2022-08-22T00:32:43.453Z,101220.72
2022-08-22T00:34:16.795Z,101224.50
2022-08-22T00:35:50.508Z,101228.88
2022-08-22T00:37:26.044Z,101227.41
2022-08-22T00:39:06.227Z,101229.63
2022-08-22T00:40:49.951Z,101230.81
2022-08-22T00:42:42.418Z,101223.88
2022-08-22T00:44:31.570Z,101232.53
2022-08-22T00:46:18.206Z,101232.25
2022-08-22T00:47:54.832Z,101231.50
2022-08-22T00:49:41.799Z,101232.34
2022-08-22T00:51:30.434Z,101233.22
2022-08-22T00:53:19.961Z,101231.38
2022-08-22T00:55:01.496Z,101230.53
2022-08-22T00:56:45.981Z,101222.50
2022-08-22T00:58:45.380Z,101223.47
2022-08-22T01:00:18.446Z,101222.03
2022-08-22T01:01:52.536Z,101227.50
2022-08-22T01:03:41.942Z,101223.84
2022-08-22T01:05:23.674Z,101227.50
2022-08-22T01:07:01.186Z,101225.66
2022-08-22T01:08:53.176Z,101220.31
2022-08-22T01:10:31.824Z,101218.59
2022-08-22T01:12:19.682Z,101219.56
2022-08-22T01:14:00.040Z,101220.53
2022-08-22T01:17:09.859Z,101227.94
2022-08-22T01:18:56.084Z,101217.22
2022-08-22T01:21:00.636Z,101221.00
2022-08-22T01:23:07.688Z,101215.03
2022-08-22T01:25:21.458Z,101216.44
2022-08-22T01:27:14.982Z,101218.47
2022-08-22T01:29:09.481Z,101217.63
2022-08-22T01:30:50.508Z,101219.34
2022-08-22T01:32:31.912Z,101214.84
2022-08-22T01:34:21.999Z,101219.22
2022-08-22T01:36:02.822Z,101216.44
2022-08-22T01:37:52.431Z,101220.09
2022-08-22T01:39:39.298Z,101221.91
2022-08-22T01:41:22.519Z,101218.38
2022-08-22T01:43:05.960Z,101217.53
2022-08-22T01:44:45.892Z,101223.13
2022-08-22T01:46:28.632Z,101217.88
2022-08-22T01:48:06.377Z,101218.00
2022-08-22T01:49:44.181Z,101217.50
2022-08-22T01:51:24.428Z,101213.44
2022-08-22T01:53:01.011Z,101212.84
2022-08-22T01:54:41.612Z,101204.94
2022-08-22T01:56:15.335Z,101203.22
2022-08-22T01:57:52.161Z,101212.22
2022-08-22T01:59:42.134Z,101209.88
2022-08-22T02:01:19.979Z,101214.47
2022-08-22T02:02:59.303Z,101209.25
2022-08-22T02:04:36.027Z,101210.25
2022-08-22T02:06:14.385Z,101213.88
2022-08-22T02:07:54.480Z,101213.47
2022-08-22T02:09:33.590Z,101209.19
2022-08-22T02:11:07.068Z,101208.97
2022-08-22T02:12:43.656Z,101205.09
2022-08-22T02:14:23.089Z,101206.56
2022-08-22T02:16:03.651Z,101200.25
2022-08-22T02:17:47.789Z,101204.63
2022-08-22T02:19:26.697Z,101207.19
2022-08-22T02:21:03.030Z,101212.53
2022-08-22T02:22:37.196Z,101209.13
2022-08-22T02:24:23.032Z,101205.47
2022-08-22T02:25:58.418Z,101211.81
2022-08-22T02:27:34.540Z,101201.47
2022-08-22T02:29:08.195Z,101206.31
2022-08-22T02:30:47.656Z,101203.84
2022-08-22T02:32:23.082Z,101209.31
2022-08-22T02:33:57.015Z,101211.13
2022-08-22T02:35:32.446Z,101210.75
2022-08-22T02:37:08.284Z,101205.50
2022-08-22T02:38:42.907Z,101202.19
2022-08-22T02:40:22.137Z,101207.03
2022-08-22T02:41:57.376Z,101211.88
2022-08-22T02:43:34.045Z,101199.69
2022-08-22T02:45:12.300Z,101206.66
2022-08-22T02:46:46.957Z,101201.94
2022-08-22T02:48:27.758Z,101196.09
2022-08-22T02:50:12.191Z,101190.88
2022-08-22T02:51:48.300Z,101199.75
2022-08-22T02:53:21.968Z,101195.16
2022-08-22T02:54:56.315Z,101194.03
2022-08-22T02:56:32.330Z,101198.56
2022-08-22T02:58:07.112Z,101199.28
2022-08-22T02:59:39.663Z,101193.44
2022-08-22T03:01:22.115Z,101194.50
2022-08-22T03:03:02.220Z,101185.53
2022-08-22T03:04:54.358Z,101195.25
2022-08-22T03:06:32.602Z,101191.41
2022-08-22T03:08:08.277Z,101185.56
2022-08-22T03:09:44.317Z,101190.16
2022-08-22T03:11:19.667Z,101183.00
2022-08-22T03:12:57.736Z,101185.03
2022-08-22T03:14:32.251Z,101187.38
2022-08-22T03:16:09.256Z,101186.06
2022-08-22T03:17:47.803Z,101174.94
2022-08-22T03:19:22.340Z,101173.22
2022-08-22T03:20:58.982Z,101177.50
2022-08-22T03:22:33.669Z,101175.78
2022-08-22T03:24:11.347Z,101174.06
2022-08-22T03:25:48.675Z,101173.44
2022-08-22T03:27:32.919Z,101182.31
2022-08-22T03:29:09.571Z,101179.44
2022-08-22T03:30:43.285Z,101178.34
2022-08-22T03:32:16.306Z,101179.09
2022-08-22T03:34:14.934Z,101175.22
2022-08-22T03:35:55.044Z,101172.44
2022-08-22T03:37:32.168Z,101177.88
2022-08-22T03:39:16.459Z,101172.66
2022-08-22T03:40:56.595Z,101162.81
2022-08-22T03:42:39.785Z,101163.06
2022-08-22T03:44:29.026Z,101164.97
2022-08-22T03:46:18.992Z,101157.19
2022-08-22T03:48:07.607Z,101166.16
2022-08-22T03:49:58.930Z,101164.44
2022-08-22T03:51:43.969Z,101159.56
2022-08-22T03:53:22.076Z,101157.00
2022-08-22T03:55:03.520Z,101155.41
2022-08-22T03:56:57.398Z,101152.50
2022-08-22T03:58:40.209Z,101161.38
2022-08-22T04:00:19.406Z,101160.19
2022-08-22T04:02:42.576Z,101161.03
2022-08-22T04:04:16.107Z,101159.75
2022-08-22T04:06:11.449Z,101156.09
2022-08-22T04:08:00.038Z,101166.81
2022-08-22T04:09:55.600Z,101159.22
2022-08-22T04:11:59.549Z,101163.81
2022-08-22T04:13:58.173Z,101162.97
2022-08-22T04:15:45.244Z,101164.91
2022-08-22T04:17:30.462Z,101165.25
2022-08-22T04:19:11.091Z,101163.63
2022-08-22T04:20:56.680Z,101165.66
2022-08-22T04:22:39.432Z,101176.94
2022-08-22T04:24:22.246Z,101166.47
2022-08-22T04:25:57.311Z,101171.59
2022-08-22T04:27:32.699Z,101168.69
2022-08-22T04:29:07.591Z,101172.88
2022-08-22T04:30:43.345Z,101167.75
2022-08-22T04:32:17.779Z,101160.13
2022-08-22T04:33:54.072Z,101167.94
2022-08-22T04:35:28.881Z,101166.88
2022-08-22T04:37:04.241Z,101167.31
2022-08-22T04:38:39.836Z,101157.69
2022-08-22T04:40:15.360Z,101158.56
2022-08-22T04:41:48.832Z,101166.16
2022-08-22T04:43:24.429Z,101166.56
2022-08-22T04:45:00.911Z,101167.41
2022-08-22T04:46:37.006Z,101167.41
2022-08-22T04:48:13.007Z,101168.38
2022-08-22T04:49:49.218Z,101169.22
2022-08-22T04:51:23.154Z,101167.50
2022-08-22T04:53:28.004Z,101164.75
2022-08-22T04:55:10.847Z,101171.91
2022-08-22T04:57:01.398Z,101167.19
2022-08-22T04:58:39.422Z,101172.00
2022-08-22T05:00:11.857Z,101169.34
2022-08-22T05:01:46.763Z,101172.88
2022-08-22T05:03:21.304Z,101178.41
2022-08-22T05:04:59.048Z,101182.19
2022-08-22T05:06:32.150Z,101182.19
2022-08-22T05:08:05.781Z,101185.06
2022-08-22T05:09:43.115Z,101185.50
2022-08-22T05:11:15.213Z,101186.03
2022-08-22T05:12:49.579Z,101190.16
2022-08-22T05:14:25.642Z,101190.81
2022-08-22T05:15:59.364Z,101184.50
2022-08-22T05:17:32.107Z,101181.28
2022-08-22T05:19:07.214Z,101193.13
2022-08-22T05:20:41.423Z,101185.22
2022-08-22T05:22:14.705Z,101181.69
2022-08-22T05:23:49.728Z,101180.31
2022-08-22T05:25:24.683Z,101186.28
2022-08-22T05:26:57.623Z,101196.53
2022-08-22T05:28:32.147Z,101183.47
2022-08-22T05:30:05.651Z,101185.19
2022-08-22T05:31:40.312Z,101188.81
2022-08-22T05:33:14.979Z,101195.03
2022-08-22T05:34:47.802Z,101189.97
2022-08-22T05:36:25.441Z,101187.59
2022-08-22T05:37:57.234Z,101192.28
2022-08-22T05:39:29.946Z,101197.22
2022-08-22T05:41:04.987Z,101198.06
2022-08-22T05:42:37.450Z,101197.00
2022-08-22T05:44:17.401Z,101197.31
2022-08-22T05:45:49.183Z,101192.16
2022-08-22T05:47:23.115Z,101198.66
2022-08-22T05:48:56.783Z,101201.75
2022-08-22T05:50:34.513Z,101195.78
2022-08-22T05:52:10.975Z,101194.72
2022-08-22T05:53:45.213Z,101200.81
2022-08-22T05:55:22.184Z,101191.50
2022-08-22T05:57:00.030Z,101195.59
2022-08-22T05:58:43.808Z,101189.72
2022-08-22T06:00:19.116Z,101187.19
2022-08-22T06:01:59.398Z,101195.31
2022-08-22T06:03:34.014Z,101201.69
2022-08-22T06:05:11.742Z,101192.13
2022-08-22T06:06:46.832Z,101195.88
2022-08-22T06:08:21.421Z,101202.16
2022-08-22T06:10:03.147Z,101203.31
2022-08-22T06:11:38.548Z,101199.34
2022-08-22T06:13:13.704Z,101201.63
2022-08-22T06:14:47.448Z,101215.84
2022-08-22T06:16:23.476Z,101219.03
2022-08-22T06:17:57.715Z,101213.16
2022-08-22T06:19:30.015Z,101213.59
2022-08-22T06:21:03.426Z,101211.56
2022-08-22T06:22:37.028Z,101214.09
2022-08-22T06:24:16.452Z,101217.06
2022-08-22T06:25:50.342Z,101216.28
2022-08-22T06:27:23.882Z,101215.09
2022-08-22T06:28:58.163Z,101216.66
2022-08-22T06:30:30.422Z,101202.44
2022-08-22T06:32:03.513Z,101212.47
2022-08-22T06:33:38.472Z,101197.72
2022-08-22T06:35:13.446Z,101209.53
2022-08-22T06:36:47.553Z,101202.78
2022-08-22T06:38:20.233Z,101212.72
2022-08-22T06:39:53.904Z,101212.69
2022-08-22T06:41:27.301Z,101213.69
2022-08-22T06:42:59.007Z,101219.72
2022-08-22T06:44:32.545Z,101224.97
2022-08-22T06:46:05.095Z,101215.31
2022-08-22T06:47:39.203Z,101215.09
2022-08-22T06:49:11.656Z,101217.19
2022-08-22T06:50:44.569Z,101219.97
2022-08-22T06:52:18.355Z,101208.13
2022-08-22T06:53:53.664Z,101212.63
2022-08-22T06:55:27.816Z,101213.50
2022-08-22T06:56:59.780Z,101213.38
2022-08-22T06:58:34.242Z,101213.13
2022-08-22T07:00:08.283Z,101210.13
2022-08-22T07:01:43.403Z,101210.84
2022-08-22T07:03:18.266Z,101210.00
2022-08-22T07:04:51.250Z,101214.84
2022-08-22T07:06:28.436Z,101211.53
2022-08-22T07:08:04.963Z,101217.06
2022-08-22T07:09:38.342Z,101209.88
2022-08-22T07:11:15.567Z,101218.91
2022-08-22T07:12:48.227Z,101210.75
2022-08-22T07:14:26.306Z,101209.41
2022-08-22T07:15:59.954Z,101207.19
2022-08-22T07:17:32.703Z,101206.78
2022-08-22T07:19:04.392Z,101196.66
2022-08-22T07:20:38.108Z,101202.44
2022-08-22T07:22:11.509Z,101199.84
2022-08-22T07:23:48.086Z,101207.72
2022-08-22T07:25:19.730Z,101196.31
2022-08-22T07:26:59.545Z,101211.09
2022-08-22T07:28:50.846Z,101202.28
2022-08-22T07:30:27.974Z,101202.94
2022-08-22T07:32:06.189Z,101208.97
2022-08-22T07:33:41.168Z,101206.53
2022-08-22T07:35:15.759Z,101205.94
2022-08-22T07:36:49.996Z,101212.75
2022-08-22T07:38:23.900Z,101210.78
2022-08-22T07:40:00.959Z,101211.66
2022-08-22T07:41:38.827Z,101220.56
2022-08-22T07:43:19.877Z,101211.41
2022-08-22T07:45:00.651Z,101215.69
2022-08-22T07:46:35.544Z,101215.69
2022-08-22T07:48:26.070Z,101216.66
2022-08-22T07:49:59.860Z,101218.78
2022-08-22T07:51:35.142Z,101219.00
2022-08-22T07:53:13.612Z,101223.13
2022-08-22T07:54:51.889Z,101216.50
2022-08-22T07:56:25.481Z,101214.56
2022-08-22T07:58:00.591Z,101216.13
2022-08-22T07:59:35.101Z,101211.94
2022-08-22T08:01:08.403Z,101221.94
2022-08-22T08:02:44.425Z,101215.75
2022-08-22T08:04:18.947Z,101220.06
2022-08-22T08:05:50.709Z,101212.63
2022-08-22T08:07:24.336Z,101217.75
2022-08-22T08:08:57.045Z,101207.31
2022-08-22T08:10:31.340Z,101212.56
2022-08-22T08:12:05.279Z,101206.59
2022-08-22T08:13:39.009Z,101204.69
2022-08-22T08:15:15.622Z,101211.09
2022-08-22T08:16:51.394Z,101205.59
2022-08-22T08:18:25.897Z,101197.72
2022-08-22T08:19:58.888Z,101198.13
2022-08-22T08:21:33.448Z,101196.88
2022-08-22T08:23:06.794Z,101198.00
2022-08-22T08:24:42.490Z,101193.22
2022-08-22T08:26:20.972Z,101186.72
2022-08-22T08:28:11.277Z,101191.50
2022-08-22T08:29:48.163Z,101187.09
2022-08-22T08:31:25.067Z,101184.94
2022-08-22T08:33:24.780Z,101188.63
2022-08-22T08:34:52.140Z,101194.28
2022-08-22T08:36:26.499Z,101181.16
2022-08-22T08:38:01.915Z,101183.38
2022-08-22T08:39:35.800Z,101181.19
2022-08-22T08:41:22.643Z,101171.22
2022-08-22T08:43:27.066Z,101175.72
2022-08-22T08:45:17.325Z,101175.31
2022-08-22T08:47:05.228Z,101171.94
2022-08-22T08:48:51.773Z,101163.13
2022-08-22T08:50:29.117Z,101166.28
2022-08-22T08:52:15.002Z,101160.63
2022-08-22T08:54:04.199Z,101165.56
2022-08-22T08:55:41.433Z,101159.88
2022-08-22T08:57:18.787Z,101154.41
2022-08-22T08:59:00.225Z,101163.31
2022-08-22T09:00:48.971Z,101151.53
2022-08-22T09:02:35.081Z,101153.88
2022-08-22T09:04:24.084Z,101145.41
2022-08-22T09:06:07.120Z,101143.53
2022-08-22T09:07:45.596Z,101147.69
2022-08-22T09:09:25.952Z,101149.28
2022-08-22T09:11:09.992Z,101141.53
2022-08-22T09:12:59.790Z,101141.34
2022-08-22T09:14:56.660Z,101138.50
2022-08-22T09:16:46.278Z,101137.53
2022-08-22T09:18:33.952Z,101140.94
2022-08-22T09:20:26.794Z,101140.09
2022-08-22T09:22:14.642Z,101140.75
2022-08-22T09:24:01.013Z,101139.50
2022-08-22T09:25:38.403Z,101134.88
2022-08-22T09:27:14.862Z,101138.31
2022-08-22T09:28:56.129Z,101132.34
2022-08-22T09:30:48.757Z,101130.88
2022-08-22T09:32:33.734Z,101133.75
2022-08-22T09:34:10.406Z,101132.09
2022-08-22T09:35:49.462Z,101137.22
2022-08-22T09:37:31.061Z,101136.31
2022-08-22T09:41:03.457Z,101132.16
2022-08-22T09:42:40.771Z,101124.91
2022-08-22T09:44:19.370Z,101121.13
2022-08-22T09:45:58.335Z,101128.47
2022-08-22T09:47:35.070Z,101123.69
2022-08-22T09:49:16.343Z,101124.19
2022-08-22T09:50:53.345Z,101127.69
2022-08-22T09:52:43.390Z,101124.22
2022-08-22T09:54:31.056Z,101119.03
2022-08-22T09:56:15.087Z,101124.69
2022-08-22T09:57:50.457Z,101122.69
2022-08-22T09:59:26.659Z,101130.34
2022-08-22T10:01:01.738Z,101128.88
2022-08-22T10:02:36.676Z,101124.00
2022-08-22T10:04:30.993Z,101125.03
2022-08-22T10:06:05.643Z,101119.84
2022-08-22T10:08:07.668Z,101113.81
2022-08-22T10:09:53.372Z,101117.09
2022-08-22T10:11:28.724Z,101111.00
2022-08-22T10:13:10.257Z,101113.88
2022-08-22T10:14:50.648Z,101108.44
2022-08-22T10:16:27.127Z,101109.44
2022-08-22T10:18:05.588Z,101118.25
2022-08-22T10:19:41.754Z,101120.13
2022-08-22T10:21:14.333Z,101112.34
2022-08-22T10:22:57.375Z,101121.13
2022-08-22T10:24:43.852Z,101116.22
2022-08-22T10:26:26.849Z,101107.97
2022-08-22T10:28:10.442Z,101116.66
2022-08-22T10:29:51.731Z,101119.78
2022-08-22T10:31:27.960Z,101113.06
2022-08-22T10:33:02.500Z,101107.38
2022-08-22T10:34:36.730Z,101109.13
2022-08-22T10:36:12.951Z,101108.66
2022-08-22T10:37:49.325Z,101108.00
2022-08-22T10:39:23.419Z,101110.88
2022-08-22T10:40:59.175Z,101107.66
2022-08-22T10:42:35.127Z,101105.97
2022-08-22T10:44:15.058Z,101107.63
2022-08-22T10:45:48.316Z,101100.00
2022-08-22T10:47:22.294Z,101105.41
2022-08-22T10:48:57.143Z,101110.81
2022-08-22T10:50:32.577Z,101109.44
2022-08-22T10:52:15.833Z,101105.00
2022-08-22T10:54:06.320Z,101098.41
2022-08-22T10:55:39.976Z,101094.31
2022-08-22T10:57:20.824Z,101096.91
2022-08-22T10:58:56.088Z,101093.69
2022-08-22T11:00:35.930Z,101099.59
2022-08-22T11:02:19.438Z,101092.84
2022-08-22T11:03:55.512Z,101087.66
2022-08-22T11:05:32.556Z,101099.03
2022-08-22T11:07:12.746Z,101086.72
2022-08-22T11:08:54.440Z,101084.88
2022-08-22T11:10:30.267Z,101083.03
2022-08-22T11:12:04.649Z,101089.28
2022-08-22T11:13:42.354Z,101084.22
2022-08-22T11:15:34.420Z,101086.59
2022-08-22T11:17:29.098Z,101086.72
2022-08-22T11:19:14.934Z,101082.34
2022-08-22T11:20:54.832Z,101085.09
2022-08-22T11:22:34.062Z,101079.47
2022-08-22T11:24:17.193Z,101083.03
2022-08-22T11:26:08.409Z,101071.19
2022-08-22T11:27:45.195Z,101077.13
2022-08-22T11:29:37.630Z,101074.41
2022-08-22T11:31:19.767Z,101080.16
2022-08-22T11:33:09.978Z,101078.63
2022-08-22T11:34:53.795Z,101071.84
2022-08-22T11:36:30.906Z,101078.13
2022-08-22T11:38:11.116Z,101073.69
2022-08-22T11:39:45.284Z,101069.63
2022-08-22T11:41:23.944Z,101068.63
2022-08-22T11:42:59.252Z,101066.25
2022-08-22T11:44:50.421Z,101067.59
2022-08-22T11:46:25.521Z,101074.38
2022-08-22T11:48:00.469Z,101076.25
2022-08-22T11:49:39.590Z,101070.47
2022-08-22T11:51:24.742Z,101073.38
2022-08-22T11:53:14.998Z,101065.56
2022-08-22T11:54:56.790Z,101064.53
2022-08-22T11:56:32.764Z,101066.22
2022-08-22T11:58:14.477Z,101063.50
2022-08-22T11:59:59.895Z,101059.38
2022-08-22T12:01:37.339Z,101057.69
2022-08-22T12:03:23.211Z,101056.00
2022-08-22T12:04:57.784Z,101055.31
2022-08-22T12:06:44.351Z,101061.09
2022-08-22T12:08:25.925Z,101063.16
2022-08-22T12:09:59.359Z,101055.19
2022-08-22T12:11:36.704Z,101055.38
2022-08-22T12:13:13.127Z,101054.34
2022-08-22T12:14:48.931Z,101051.34
2022-08-22T12:16:25.945Z,101055.78
2022-08-22T12:18:21.141Z,101052.38
2022-08-22T12:20:15.084Z,101049.81
2022-08-22T12:22:03.637Z,101052.56
2022-08-22T12:23:53.856Z,101053.56
2022-08-22T12:25:37.172Z,101047.25
2022-08-22T12:27:32.479Z,101046.94
2022-08-22T12:29:15.450Z,101044.56
2022-08-22T12:30:55.419Z,101041.03
2022-08-22T12:32:43.939Z,101043.41
2022-08-22T12:34:20.853Z,101043.75
2022-08-22T12:36:01.096Z,101027.94
2022-08-22T12:37:39.742Z,101034.69
2022-08-22T12:39:35.522Z,101026.84
2022-08-22T12:41:34.804Z,101031.38
2022-08-22T12:43:27.526Z,101024.69
2022-08-22T12:45:17.647Z,101029.69
2022-08-22T12:46:59.125Z,101032.47
2022-08-22T12:48:39.939Z,101035.81
2022-08-22T12:50:16.729Z,101030.81
2022-08-22T12:52:04.358Z,101028.06
2022-08-22T12:53:51.536Z,101025.06
2022-08-22T12:55:36.523Z,101031.13
2022-08-22T12:57:23.896Z,101022.34
2022-08-22T12:59:08.770Z,101017.16
2022-08-22T13:00:43.901Z,101027.28
2022-08-22T13:02:18.768Z,101017.47
2022-08-22T13:03:53.406Z,101021.81
2022-08-22T13:05:28.504Z,101012.69
2022-08-22T13:07:05.137Z,101012.47
2022-08-22T13:08:42.661Z,101010.56
2022-08-22T13:10:31.049Z,101016.03
2022-08-22T13:12:06.025Z,101013.25
2022-08-22T13:13:39.333Z,101009.50
2022-08-22T13:15:20.453Z,101013.63
2022-08-22T13:16:57.001Z,101010.88
2022-08-22T13:18:33.503Z,101005.84
2022-08-22T13:20:10.924Z,101009.06
2022-08-22T13:21:45.130Z,101012.03
2022-08-22T13:23:19.225Z,101012.50
2022-08-22T13:24:54.949Z,101019.03
2022-08-22T13:26:34.014Z,101010.19
2022-08-22T13:28:12.323Z,101006.81
2022-08-22T13:29:47.834Z,101013.19
2022-08-22T13:31:21.639Z,101008.69
2022-08-22T13:32:54.770Z,101003.84
2022-08-22T13:34:34.793Z,101005.00
2022-08-22T13:36:14.054Z,101003.13
2022-08-22T13:37:50.048Z,101007.59
2022-08-22T13:39:25.616Z,101000.91
2022-08-22T13:40:58.246Z,101000.31
2022-08-22T13:42:32.372Z,100993.78
2022-08-22T13:44:22.202Z,101000.72
2022-08-22T13:45:56.209Z,100992.41
2022-08-22T13:47:31.554Z,100995.78
2022-08-22T13:49:07.071Z,100995.41
2022-08-22T13:50:55.072Z,100991.44
2022-08-22T13:52:30.149Z,100989.13
2022-08-22T13:54:10.932Z,100977.47
2022-08-22T13:55:49.222Z,100985.22
2022-08-22T13:57:24.656Z,100977.47
2022-08-22T13:58:58.286Z,100979.31
2022-08-22T14:00:51.446Z,100974.44
2022-08-22T14:02:37.373Z,100981.50
2022-08-22T14:04:28.403Z,100984.13
2022-08-22T14:06:35.505Z,100975.28
2022-08-22T14:08:12.486Z,100981.13
2022-08-22T14:09:54.254Z,100983.31
2022-08-22T14:11:30.981Z,100974.53
2022-08-22T14:13:22.449Z,100983.56
2022-08-22T14:14:56.806Z,100973.25
2022-08-22T14:16:33.679Z,100981.31
2022-08-22T14:18:11.473Z,100977.09
2022-08-22T14:19:53.023Z,100979.03
2022-08-22T14:21:40.501Z,100976.75
2022-08-22T14:23:16.080Z,100967.28
2022-08-22T14:24:55.780Z,100975.03
2022-08-22T14:26:33.182Z,100972.38
2022-08-22T14:28:15.670Z,100967.59
2022-08-22T14:29:50.818Z,100969.53
2022-08-22T14:31:24.586Z,100972.69
2022-08-22T14:32:58.948Z,100972.28
2022-08-22T14:34:34.185Z,100970.38
2022-08-22T14:36:11.516Z,100970.06
2022-08-22T14:37:46.035Z,100975.66
2022-08-22T14:39:23.197Z,100964.97
2022-08-22T14:40:56.379Z,100961.59
2022-08-22T14:42:30.689Z,100974.13
2022-08-22T14:44:04.919Z,100972.50
2022-08-22T14:45:38.983Z,100962.16
2022-08-22T14:47:54.344Z,100955.13
2022-08-22T14:49:26.885Z,100956.47
2022-08-22T14:51:04.112Z,100967.22
2022-08-22T14:52:38.643Z,100959.66
2022-08-22T14:54:14.013Z,100949.84
2022-08-22T14:55:58.320Z,100944.22
2022-08-22T14:57:30.063Z,100942.22
2022-08-22T14:59:03.063Z,100945.66
2022-08-22T15:00:38.354Z,100936.25
2022-08-22T15:02:14.760Z,100941.53
2022-08-22T15:03:52.559Z,100940.56
2022-08-22T15:05:24.483Z,100933.41
2022-08-22T15:06:59.137Z,100934.47
2022-08-22T15:08:32.878Z,100934.91
2022-08-22T15:10:06.443Z,100928.41
2022-08-22T15:11:42.169Z,100926.31
2022-08-22T15:13:14.201Z,100924.81
2022-08-22T15:14:48.942Z,100921.03
2022-08-22T15:16:29.333Z,100930.50
2022-08-22T15:18:01.945Z,100929.03
2022-08-22T15:19:35.407Z,100927.97
2022-08-22T15:21:09.923Z,100925.00
2022-08-22T15:22:46.015Z,100930.06
2022-08-22T15:24:18.631Z,100922.91
2022-08-22T15:25:57.506Z,100921.88
2022-08-22T15:27:29.990Z,100914.53
2022-08-22T15:29:04.737Z,100918.84
2022-08-22T15:30:39.062Z,100912.69
2022-08-22T15:32:20.063Z,100925.47
2022-08-22T15:33:52.164Z,100917.44
2022-08-22T15:35:27.956Z,100917.41
2022-08-22T15:37:07.787Z,100921.16
2022-08-22T15:38:44.419Z,100911.88
2022-08-22T15:40:30.686Z,100915.19
2022-08-22T15:42:03.275Z,100912.63
2022-08-22T15:43:36.074Z,100925.47
2022-08-22T15:45:17.589Z,100924.56
2022-08-22T15:46:56.752Z,100919.75
2022-08-22T15:48:30.925Z,100930.00
2022-08-22T15:50:05.696Z,100919.09
2022-08-22T15:51:39.824Z,100924.19
2022-08-22T15:53:14.498Z,100923.38
2022-08-22T15:55:04.802Z,100915.75
2022-08-22T15:56:38.969Z,100919.63
2022-08-22T15:58:21.889Z,100913.47
2022-08-22T15:59:54.933Z,100919.44
2022-08-22T16:01:27.011Z,100926.47
2022-08-22T16:03:01.410Z,100920.84
2022-08-22T16:04:35.746Z,100919.47
2022-08-22T16:06:09.672Z,100923.66
2022-08-22T16:07:42.629Z,100921.84
2022-08-22T16:09:35.041Z,100920.88
2022-08-22T16:11:19.312Z,100919.66
2022-08-22T16:13:05.750Z,100921.66
2022-08-22T16:14:46.128Z,100925.34
2022-08-22T16:16:36.345Z,100929.03
2022-08-22T16:18:07.964Z,100926.06
2022-08-22T16:19:39.842Z,100925.88
2022-08-22T16:21:12.303Z,100931.09
2022-08-22T16:23:02.691Z,100927.13
2022-08-22T16:24:55.462Z,100925.69
2022-08-22T16:26:36.857Z,100925.13
2022-08-22T16:28:19.078Z,100922.75
2022-08-22T16:30:11.396Z,100926.63
2022-08-22T16:31:57.342Z,100922.75
2022-08-22T16:33:31.183Z,100922.41
2022-08-22T16:35:03.157Z,100918.09
2022-08-22T16:36:43.763Z,100922.81
2022-08-22T16:38:21.943Z,100915.38
2022-08-22T16:40:09.266Z,100917.06
2022-08-22T16:41:46.823Z,100917.91
2022-08-22T16:43:19.583Z,100912.31
2022-08-22T16:44:55.357Z,100914.16
2022-08-22T16:46:36.358Z,100911.34
2022-08-22T16:48:25.480Z,100910.84
2022-08-22T16:50:00.672Z,100911.13
2022-08-22T16:51:32.469Z,100915.97
2022-08-22T16:53:06.668Z,100905.94
2022-08-22T16:54:42.518Z,100917.25
2022-08-22T16:56:20.550Z,100909.41
2022-08-22T16:58:06.144Z,100911.56
2022-08-22T16:59:52.498Z,100908.19
2022-08-22T17:01:29.651Z,100904.94
2022-08-22T17:03:08.321Z,100904.78
2022-08-22T17:04:48.566Z,100916.28
2022-08-22T17:06:34.430Z,100908.31
2022-08-22T17:08:11.436Z,100907.84
2022-08-22T17:09:59.965Z,100905.78
2022-08-22T17:11:37.843Z,100901.22
2022-08-22T17:13:21.585Z,100905.25
2022-08-22T17:15:04.060Z,100904.94
2022-08-22T17:16:43.635Z,100899.66
2022-08-22T17:18:25.515Z,100905.72
2022-08-22T17:20:08.148Z,100899.75
2022-08-22T17:21:42.048Z,100902.09
2022-08-22T17:23:28.655Z,100900.78
2022-08-22T17:25:07.625Z,100901.13
2022-08-22T17:26:49.700Z,100904.59
2022-08-22T17:28:39.592Z,100902.75
2022-08-22T17:30:13.522Z,100906.41
2022-08-22T17:31:48.467Z,100901.03
2022-08-22T17:33:28.614Z,100901.75
2022-08-22T17:35:06.992Z,100894.53
2022-08-22T17:36:51.329Z,100898.31
2022-08-22T17:38:28.646Z,100905.28
2022-08-22T17:40:13.579Z,100903.59
2022-08-22T17:41:48.734Z,100906.00
2022-08-22T17:43:48.581Z,100915.69
2022-08-22T17:45:28.123Z,100904.06
2022-08-22T17:47:02.076Z,100911.16
2022-08-22T17:48:41.932Z,100915.03
2022-08-22T17:50:18.844Z,100910.94
2022-08-22T17:51:53.757Z,100908.41
2022-08-22T17:53:28.384Z,100916.38
2022-08-22T17:55:02.071Z,100912.97
2022-08-22T17:56:40.332Z,100910.81
2022-08-22T17:58:13.522Z,100913.53
2022-08-22T18:00:10.859Z,100914.38
2022-08-22T18:01:45.353Z,100923.34
2022-08-22T18:03:22.158Z,100922.34
2022-08-22T18:05:01.937Z,100918.09
2022-08-22T18:06:34.465Z,100916.97
2022-08-22T18:08:08.324Z,100918.31
2022-08-22T18:09:46.351Z,100915.59
2022-08-22T18:11:22.500Z,100922.69
2022-08-22T18:12:57.727Z,100922.88
2022-08-22T18:14:31.451Z,100918.69
2022-08-22T18:16:06.054Z,100925.59
2022-08-22T18:17:41.341Z,100922.88
2022-08-22T18:19:17.334Z,100923.06
2022-08-22T18:20:52.778Z,100922.88
2022-08-22T18:22:28.075Z,100920.00
2022-08-22T18:24:01.261Z,100930.50
2022-08-22T18:25:36.438Z,100932.53
2022-08-22T18:27:34.454Z,100922.69
2022-08-22T18:29:11.470Z,100930.47
2022-08-22T18:30:52.903Z,100933.31
2022-08-22T18:32:28.397Z,100929.94
2022-08-22T18:34:02.926Z,100933.81
2022-08-22T18:35:41.329Z,100937.53
2022-08-22T18:37:20.037Z,100937.16
2022-08-22T18:38:55.645Z,100930.06
2022-08-22T18:40:30.914Z,100933.25
2022-08-22T18:42:07.898Z,100929.69
2022-08-22T18:43:41.497Z,100938.31
2022-08-22T18:45:15.562Z,100931.72
2022-08-22T18:46:47.600Z,100943.84
2022-08-22T18:48:27.707Z,100938.59
2022-08-22T18:50:00.951Z,100937.44
2022-08-22T18:51:38.438Z,100942.53